createdAt,value
2023-05-03T00:01:01.150Z,77.30
2023-05-03T00:04:03.386Z,76.97
2023-05-03T00:07:04.989Z,76.99
2023-05-03T00:10:07.565Z,77.23
2023-05-03T00:13:09.265Z,77.10
2023-05-03T00:16:10.943Z,77.04
2023-05-03T00:19:24.196Z,77.01
2023-05-03T00:22:31.039Z,77.15
2023-05-03T00:25:32.686Z,77.12
2023-05-03T00:28:34.345Z,77.08
2023-05-03T00:31:36.149Z,77.11
2023-05-03T00:34:38.614Z,77.28
2023-05-03T00:37:40.192Z,77.46
2023-05-03T00:40:41.784Z,77.44
2023-05-03T00:43:43.527Z,77.38
2023-05-03T00:46:45.214Z,77.09
2023-05-03T00:49:46.991Z,77.20
2023-05-03T00:52:48.796Z,77.11
2023-05-03T00:55:53.104Z,77.30
2023-05-03T00:58:55.587Z,77.17
2023-05-03T01:01:57.330Z,76.95
2023-05-03T01:04:59.062Z,77.27
2023-05-03T01:08:09.443Z,77.30
2023-05-03T01:11:19.598Z,77.22
2023-05-03T01:14:45.649Z,77.17
2023-05-03T01:17:51.848Z,77.13
2023-05-03T01:20:53.620Z,77.00
2023-05-03T01:24:06.595Z,77.06
2023-05-03T01:27:08.234Z,77.27
2023-05-03T01:30:11.933Z,77.45
2023-05-03T01:33:38.694Z,77.52
2023-05-03T01:36:43.525Z,77.93
2023-05-03T01:39:51.544Z,78.11
2023-05-03T01:42:55.455Z,78.66
2023-05-03T01:45:58.078Z,78.76
2023-05-03T01:48:59.995Z,79.00
2023-05-03T01:52:01.838Z,78.40
2023-05-03T01:55:03.912Z,78.19
2023-05-03T01:58:05.674Z,78.29
2023-05-03T02:01:07.405Z,78.13
2023-05-03T02:04:09.082Z,78.19
2023-05-03T02:07:10.767Z,78.07
2023-05-03T02:10:12.408Z,77.96
2023-05-03T02:13:14.077Z,77.82
2023-05-03T02:16:15.825Z,78.15
2023-05-03T02:19:17.517Z,78.00
2023-05-03T02:22:19.554Z,77.74
2023-05-03T02:25:21.168Z,77.70
2023-05-03T02:28:22.775Z,77.79
2023-05-03T02:31:25.178Z,77.83
2023-05-03T02:34:27.510Z,77.72
2023-05-03T02:37:29.290Z,77.83
2023-05-03T02:40:30.923Z,78.19
2023-05-03T02:43:32.639Z,78.14
2023-05-03T02:46:34.304Z,78.08
2023-05-03T02:49:35.950Z,78.08
2023-05-03T02:52:37.630Z,78.16
2023-05-03T02:55:39.973Z,78.04
2023-05-03T02:58:41.705Z,77.84
2023-05-03T03:01:43.366Z,77.75
2023-05-03T03:04:45.049Z,78.04
2023-05-03T03:07:46.827Z,78.04
2023-05-03T03:10:48.533Z,77.98
2023-05-03T03:13:50.187Z,78.01
2023-05-03T03:16:52.116Z,77.92
2023-05-03T03:19:53.713Z,77.88
2023-05-03T03:22:55.344Z,78.11
2023-05-03T03:25:57.125Z,78.18
2023-05-03T03:28:58.752Z,78.09
2023-05-03T03:32:00.510Z,78.00
2023-05-03T03:35:02.192Z,78.00
2023-05-03T03:38:04.489Z,78.06
2023-05-03T03:41:06.260Z,78.05
2023-05-03T03:44:07.908Z,78.02
2023-05-03T03:47:09.546Z,78.26
2023-05-03T03:50:11.461Z,78.22
2023-05-03T03:53:13.195Z,78.28
2023-05-03T03:56:14.951Z,78.23
2023-05-03T03:59:16.616Z,78.35
2023-05-03T04:02:18.266Z,78.13
2023-05-03T04:05:19.885Z,77.96
2023-05-03T04:08:22.501Z,78.38
2023-05-03T04:11:24.446Z,78.42
2023-05-03T04:14:26.174Z,78.43
2023-05-03T04:17:27.875Z,78.44
2023-05-03T04:20:29.592Z,78.29
2023-05-03T04:23:31.793Z,78.29
2023-05-03T04:26:33.920Z,78.33
2023-05-03T04:29:35.565Z,78.24
2023-05-03T04:32:37.545Z,78.43
2023-05-03T04:35:40.928Z,78.36
2023-05-03T04:38:42.939Z,78.15
2023-05-03T04:41:44.584Z,78.20
2023-05-03T04:44:46.214Z,78.01
2023-05-03T04:47:48.173Z,78.09
2023-05-03T04:50:49.831Z,77.97
2023-05-03T04:53:51.568Z,78.12
2023-05-03T04:56:54.850Z,78.16
2023-05-03T04:59:56.535Z,78.17
2023-05-03T05:02:58.427Z,78.18
2023-05-03T05:06:00.287Z,78.07
2023-05-03T05:09:02.051Z,78.17
2023-05-03T05:12:03.935Z,78.29
2023-05-03T05:15:09.180Z,78.29
2023-05-03T05:18:11.019Z,78.31
2023-05-03T05:21:12.892Z,78.16
2023-05-03T05:24:14.644Z,78.07
2023-05-03T05:27:16.893Z,78.19
2023-05-03T05:30:18.592Z,78.26
2023-05-03T05:33:20.422Z,78.08
2023-05-03T05:36:22.199Z,78.28
2023-05-03T05:39:23.966Z,78.11
2023-05-03T05:42:26.052Z,78.23
2023-05-03T05:45:27.699Z,78.06
2023-05-03T05:48:30.120Z,78.16
2023-05-03T05:51:31.889Z,78.24
2023-05-03T05:54:34.002Z,78.13
2023-05-03T05:57:35.774Z,78.00
2023-05-03T06:00:40.505Z,78.13
2023-05-03T06:03:42.460Z,78.09
2023-05-03T06:06:44.184Z,78.05
2023-05-03T06:09:45.936Z,77.88
2023-05-03T06:12:47.731Z,77.98
2023-05-03T06:15:49.427Z,77.88
2023-05-03T06:18:51.189Z,77.89
2023-05-03T06:21:52.845Z,77.85
2023-05-03T06:24:55.608Z,77.91
2023-05-03T06:27:57.348Z,77.77
2023-05-03T06:30:59.171Z,77.82
2023-05-03T06:34:00.908Z,77.82
2023-05-03T06:37:02.644Z,77.98
2023-05-03T06:40:04.819Z,77.74
2023-05-03T06:43:07.669Z,77.87
2023-05-03T06:46:09.430Z,77.73
2023-05-03T06:49:11.162Z,77.98
2023-05-03T06:52:12.810Z,77.77
2023-05-03T06:55:14.408Z,77.98
2023-05-03T06:58:16.030Z,77.94
2023-05-03T07:01:17.799Z,78.03
2023-05-03T07:04:19.548Z,77.92
2023-05-03T07:07:21.534Z,77.90
2023-05-03T07:10:23.302Z,77.79
2023-05-03T07:13:24.953Z,77.76
2023-05-03T07:16:26.553Z,77.68
2023-05-03T07:19:28.248Z,77.70
2023-05-03T07:22:29.975Z,77.69
2023-05-03T07:25:32.046Z,77.40
2023-05-03T07:28:33.777Z,77.80
2023-05-03T07:31:35.427Z,77.72
2023-05-03T07:34:37.084Z,77.81
2023-05-03T07:37:38.764Z,77.64
2023-05-03T07:40:41.154Z,77.61
2023-05-03T07:43:42.919Z,77.67
2023-05-03T07:46:44.572Z,77.73
2023-05-03T07:49:46.161Z,77.54
2023-05-03T07:52:47.758Z,77.68
2023-05-03T07:55:56.061Z,77.59
2023-05-03T07:59:08.548Z,77.42
2023-05-03T08:02:11.470Z,77.62
2023-05-03T08:05:13.447Z,77.15
2023-05-03T08:08:15.375Z,77.45
2023-05-03T08:11:17.098Z,77.55
2023-05-03T08:14:18.740Z,77.38
2023-05-03T08:17:20.629Z,77.44
2023-05-03T08:20:23.402Z,77.42
2023-05-03T08:23:25.468Z,77.22
2023-05-03T08:26:27.098Z,77.41
2023-05-03T08:29:28.735Z,77.32
2023-05-03T08:32:30.601Z,77.23
2023-05-03T08:35:32.265Z,76.92
2023-05-03T08:38:34.511Z,76.98
2023-05-03T08:41:36.243Z,77.04
2023-05-03T08:44:38.121Z,77.05
2023-05-03T08:47:39.831Z,76.92
2023-05-03T08:50:41.549Z,77.02
2023-05-03T08:53:43.204Z,77.06
2023-05-03T08:56:44.846Z,77.14
2023-05-03T08:59:49.247Z,77.20
2023-05-03T09:02:51.014Z,76.88
2023-05-03T09:05:52.901Z,76.74
2023-05-03T09:08:55.578Z,76.55
2023-05-03T09:11:57.342Z,76.47
2023-05-03T09:14:58.968Z,76.43
2023-05-03T09:18:08.618Z,76.32
2023-05-03T09:21:19.018Z,76.16
2023-05-03T09:24:22.069Z,76.17
2023-05-03T09:27:25.241Z,76.10
2023-05-03T09:30:26.853Z,75.87
2023-05-03T09:33:31.624Z,75.87
2023-05-03T09:36:48.948Z,75.61
2023-05-03T09:40:05.564Z,75.30
2023-05-03T09:43:11.702Z,75.47
2023-05-03T09:46:14.009Z,75.83
2023-05-03T09:49:17.979Z,76.10
2023-05-03T09:52:22.157Z,76.22
2023-05-03T09:55:24.252Z,76.07
2023-05-03T09:58:26.291Z,76.15
2023-05-03T10:01:28.172Z,76.06
2023-05-03T10:04:39.732Z,75.83
2023-05-03T10:07:41.298Z,75.93
2023-05-03T10:10:44.671Z,75.67
2023-05-03T10:13:46.410Z,75.69
2023-05-03T10:16:50.407Z,75.72
2023-05-03T10:20:20.998Z,75.76
2023-05-03T10:23:23.300Z,75.64
2023-05-03T10:26:28.123Z,75.58
2023-05-03T10:29:36.037Z,75.50
2023-05-03T10:32:38.112Z,75.29
2023-05-03T10:35:41.327Z,75.05
2023-05-03T10:38:42.986Z,75.10
2023-05-03T10:41:45.393Z,75.02
2023-05-03T10:44:52.746Z,74.72
2023-05-03T10:48:13.338Z,74.36
2023-05-03T10:51:35.071Z,74.13
2023-05-03T10:54:36.689Z,74.14
2023-05-03T10:57:41.143Z,74.09
2023-05-03T11:00:42.894Z,74.19
2023-05-03T11:03:53.505Z,73.96
2023-05-03T11:06:55.261Z,74.00
2023-05-03T11:09:57.053Z,74.02
2023-05-03T11:12:58.758Z,73.39
2023-05-03T11:16:00.416Z,73.25
2023-05-03T11:19:02.684Z,73.29
2023-05-03T11:22:04.441Z,73.52
2023-05-03T11:25:06.710Z,74.02
2023-05-03T11:28:08.413Z,74.14
2023-05-03T11:31:11.288Z,74.34
2023-05-03T11:37:42.814Z,74.36
2023-05-03T11:40:45.211Z,74.32
2023-05-03T11:44:00.577Z,74.62
2023-05-03T11:47:06.787Z,74.79
2023-05-03T11:50:09.196Z,74.89
2023-05-03T11:53:12.158Z,74.83
2023-05-03T11:56:14.646Z,74.62
2023-05-03T11:59:16.524Z,74.56
2023-05-03T12:02:18.218Z,74.43
2023-05-03T12:05:20.960Z,74.77
2023-05-03T12:08:30.015Z,74.76
2023-05-03T12:11:42.922Z,74.33
2023-05-03T12:14:57.420Z,74.02
2023-05-03T12:18:01.258Z,74.12
2023-05-03T12:21:29.540Z,74.27
2023-05-03T12:24:28.100Z,74.41
2023-05-03T12:27:32.617Z,74.58
2023-05-03T12:30:34.817Z,74.95
2023-05-03T12:33:38.603Z,74.99
2023-05-03T12:36:43.386Z,74.99
2023-05-03T12:39:49.967Z,74.91
2023-05-03T12:42:58.118Z,74.98
2023-05-03T12:46:23.600Z,75.21
2023-05-03T12:49:23.549Z,75.10
2023-05-03T12:58:57.840Z,75.09
2023-05-03T13:05:00.283Z,75.35
2023-05-03T13:08:08.478Z,75.21
2023-05-03T13:11:11.128Z,75.45
2023-05-03T13:14:12.921Z,75.26
2023-05-03T13:17:14.890Z,75.35
2023-05-03T13:20:16.793Z,75.33
2023-05-03T13:23:18.416Z,75.31
2023-05-03T13:26:20.568Z,75.03
2023-05-03T13:29:22.349Z,75.18
2023-05-03T13:32:24.950Z,75.14
2023-05-03T13:35:26.782Z,75.24
2023-05-03T13:38:28.577Z,75.08
2023-05-03T13:41:30.217Z,75.12
2023-05-03T13:44:31.900Z,75.00
2023-05-03T13:47:59.570Z,75.02
2023-05-03T13:50:55.747Z,74.82
2023-05-03T13:54:01.414Z,74.91
2023-05-03T13:57:03.263Z,74.85
2023-05-03T14:00:05.836Z,74.98
2023-05-03T14:03:08.080Z,74.81
2023-05-03T14:06:10.027Z,74.95
2023-05-03T14:09:12.117Z,74.90
2023-05-03T14:12:26.077Z,74.78
2023-05-03T14:15:27.926Z,74.61
2023-05-03T14:18:30.780Z,74.69
2023-05-03T14:21:32.505Z,74.79
2023-05-03T14:24:34.109Z,75.00
2023-05-03T14:27:35.764Z,75.33
2023-05-03T14:30:37.460Z,75.51
2023-05-03T14:33:39.593Z,75.54
2023-05-03T14:36:41.392Z,75.85
2023-05-03T14:39:43.134Z,75.72
2023-05-03T14:42:44.748Z,75.93
2023-05-03T14:45:46.366Z,75.65
2023-05-03T14:48:48.288Z,75.75
2023-05-03T14:51:50.023Z,75.89
2023-05-03T14:54:51.703Z,75.61
2023-05-03T14:57:54.572Z,75.53
2023-05-03T15:00:56.500Z,75.75
2023-05-03T15:03:58.533Z,75.79
2023-05-03T15:07:02.012Z,75.65
2023-05-03T15:10:04.683Z,75.99
2023-05-03T15:13:06.893Z,76.03
2023-05-03T15:16:08.827Z,75.98
2023-05-03T15:19:10.867Z,76.18
2023-05-03T15:22:12.819Z,76.11
2023-05-03T15:25:14.492Z,75.95
2023-05-03T15:28:16.405Z,75.81
2023-05-03T15:31:18.130Z,75.82
2023-05-03T15:34:20.094Z,75.76
2023-05-03T15:37:21.952Z,75.45
2023-05-03T15:40:30.483Z,75.86
2023-05-03T15:43:32.568Z,75.97
2023-05-03T15:46:34.678Z,76.08
2023-05-03T15:49:36.483Z,75.84
2023-05-03T15:52:38.162Z,75.84
2023-05-03T15:55:39.919Z,75.74
2023-05-03T15:58:41.716Z,75.83
2023-05-03T16:01:43.597Z,75.98
2023-05-03T16:04:45.364Z,75.89
2023-05-03T16:07:47.209Z,75.85
2023-05-03T16:10:48.952Z,75.59
2023-05-03T16:13:50.777Z,75.84
2023-05-03T16:16:53.122Z,75.86
2023-05-03T16:19:55.199Z,76.10
2023-05-03T16:22:57.166Z,75.79
2023-05-03T16:25:58.985Z,76.15
2023-05-03T16:29:00.677Z,76.21
2023-05-03T16:32:02.821Z,76.19
2023-05-03T16:35:04.943Z,76.35
2023-05-03T16:38:07.143Z,76.29
2023-05-03T16:41:08.748Z,76.36
2023-05-03T16:44:10.610Z,76.25
2023-05-03T16:47:12.313Z,76.26
2023-05-03T16:50:14.691Z,76.44
2023-05-03T16:53:16.420Z,76.53
2023-05-03T16:56:18.251Z,76.33
2023-05-03T16:59:19.976Z,76.82
2023-05-03T17:02:21.641Z,76.53
2023-05-03T17:05:23.372Z,76.57
2023-05-03T17:08:25.183Z,76.72
2023-05-03T17:11:27.186Z,76.77
2023-05-03T17:14:29.362Z,76.68
2023-05-03T17:17:32.185Z,76.80
2023-05-03T17:20:35.326Z,76.71
2023-05-03T17:23:38.457Z,76.72
2023-05-03T17:26:40.611Z,76.42
2023-05-03T17:29:42.309Z,76.56
2023-05-03T17:32:44.275Z,76.74
2023-05-03T17:35:46.352Z,76.76
2023-05-03T17:38:48.295Z,76.80
2023-05-03T17:41:50.017Z,76.82
2023-05-03T17:44:51.839Z,76.91
2023-05-03T17:47:53.648Z,76.77
2023-05-03T17:50:58.368Z,76.69
2023-05-03T17:54:00.134Z,76.71
2023-05-03T17:57:02.074Z,76.81
2023-05-03T18:00:05.818Z,76.83
2023-05-03T18:03:08.029Z,77.30
2023-05-03T18:06:11.361Z,77.56
2023-05-03T18:09:13.392Z,77.01
2023-05-03T18:12:15.084Z,77.27
2023-05-03T18:15:16.772Z,77.20
2023-05-03T18:18:18.730Z,77.10
2023-05-03T18:21:20.466Z,77.18
2023-05-03T18:24:22.414Z,77.37
2023-05-03T18:27:24.861Z,77.18
2023-05-03T18:30:26.866Z,77.26
2023-05-03T18:33:29.424Z,77.44
2023-05-03T18:36:31.304Z,77.58
2023-05-03T18:39:33.189Z,77.16
2023-05-03T18:42:34.984Z,77.27
2023-05-03T18:45:38.389Z,77.43
2023-05-03T18:48:40.252Z,77.51
2023-05-03T18:51:41.953Z,77.58
2023-05-03T18:54:43.787Z,77.74
2023-05-03T18:57:45.644Z,77.87
2023-05-03T19:00:47.412Z,77.63
2023-05-03T19:03:49.169Z,77.49
2023-05-03T19:06:51.014Z,77.65
2023-05-03T19:09:56.165Z,77.49
2023-05-03T19:12:57.951Z,77.27
2023-05-03T19:16:00.154Z,77.58
2023-05-03T19:19:01.875Z,77.68
2023-05-03T19:22:03.772Z,77.80
2023-05-03T19:25:06.205Z,77.79
2023-05-03T19:28:07.986Z,77.75
2023-05-03T19:31:09.993Z,77.60
2023-05-03T19:34:12.089Z,77.65
2023-05-03T19:37:13.882Z,77.84
2023-05-03T19:40:15.794Z,77.76
2023-05-03T19:43:17.800Z,77.76
2023-05-03T19:46:19.913Z,78.05
2023-05-03T19:49:21.572Z,77.90
2023-05-03T19:52:23.479Z,77.85
2023-05-03T19:55:25.312Z,78.28
2023-05-03T19:58:27.377Z,78.18
2023-05-03T20:01:29.263Z,78.19
2023-05-03T20:04:31.574Z,78.11
2023-05-03T20:07:34.608Z,78.08
2023-05-03T20:10:36.657Z,77.96
2023-05-03T20:13:39.309Z,77.89
2023-05-03T20:16:41.161Z,78.07
2023-05-03T20:19:43.181Z,78.03
2023-05-03T20:22:47.037Z,78.01
2023-05-03T20:25:48.735Z,78.18
2023-05-03T20:28:50.555Z,77.91
2023-05-03T20:31:52.191Z,77.94
2023-05-03T20:34:54.332Z,78.07
2023-05-03T20:37:56.560Z,78.31
2023-05-03T20:40:58.435Z,78.24
2023-05-03T20:44:00.620Z,78.19
2023-05-03T20:47:02.298Z,78.52
2023-05-03T20:50:07.527Z,78.49
2023-05-03T20:53:09.649Z,78.42
2023-05-03T20:56:11.960Z,78.29
2023-05-03T20:59:13.889Z,78.45
2023-05-03T21:02:15.920Z,78.39
2023-05-03T21:05:17.817Z,78.38
2023-05-03T21:08:19.772Z,78.27
2023-05-03T21:11:21.935Z,78.20
2023-05-03T21:14:23.741Z,78.33
2023-05-03T21:17:25.635Z,78.33
2023-05-03T21:20:27.286Z,78.29
2023-05-03T21:23:29.271Z,78.30
2023-05-03T21:26:30.856Z,78.31
2023-05-03T21:29:32.971Z,78.33
2023-05-03T21:32:34.706Z,78.43
2023-05-03T21:35:36.350Z,78.44
2023-05-03T21:38:39.234Z,78.36
2023-05-03T21:41:41.083Z,78.28
2023-05-03T21:44:47.393Z,78.41
2023-05-03T21:47:49.098Z,78.58
2023-05-03T21:50:51.695Z,78.53
2023-05-03T21:53:53.505Z,78.65
2023-05-03T21:56:55.672Z,78.41
2023-05-03T21:59:58.172Z,78.52
2023-05-03T22:03:00.143Z,78.50
2023-05-03T22:06:02.148Z,78.56
2023-05-03T22:09:04.218Z,78.66
2023-05-03T22:12:22.364Z,78.56
2023-05-03T22:15:25.799Z,78.68
2023-05-03T22:18:27.680Z,78.63
2023-05-03T22:21:29.463Z,78.65
2023-05-03T22:24:31.166Z,78.67
2023-05-03T22:27:33.069Z,78.84
2023-05-03T22:30:34.694Z,78.68
2023-05-03T22:33:36.469Z,78.78
2023-05-03T22:36:38.448Z,78.72
2023-05-03T22:39:40.168Z,78.82
2023-05-03T22:42:41.887Z,78.76
2023-05-03T22:45:43.618Z,78.64
2023-05-03T22:48:45.665Z,78.60
2023-05-03T22:51:47.536Z,78.62
2023-05-03T22:54:49.225Z,78.52
2023-05-03T22:57:51.459Z,78.61
2023-05-03T23:00:54.125Z,78.55
2023-05-03T23:03:57.094Z,78.63
2023-05-03T23:06:59.280Z,78.67
2023-05-03T23:10:03.080Z,78.85
2023-05-03T23:13:05.207Z,78.95
2023-05-03T23:16:07.959Z,79.13
2023-05-03T23:19:09.674Z,79.00
2023-05-03T23:22:11.515Z,78.99
2023-05-03T23:25:13.160Z,79.06
2023-05-03T23:28:14.826Z,78.83
2023-05-03T23:31:16.899Z,78.95
2023-05-03T23:34:19.579Z,78.77
2023-05-03T23:37:21.277Z,78.74
2023-05-03T23:40:23.131Z,79.08
2023-05-03T23:43:25.055Z,78.83
2023-05-03T23:46:26.922Z,78.82
2023-05-03T23:49:28.838Z,78.86
2023-05-03T23:52:30.582Z,78.83
2023-05-03T23:55:32.345Z,78.96
2023-05-03T23:58:34.075Z,78.92
